Airbus 319-111 from Aigle Azur at Funchal.
 Regi:F-HBAL  LARGER
 MSN Year:2870 2006
 Date of picture:2019-05-22 20:36
 Position:05
 Flight: ARR LIS TP1689 Lisbon Humberto Delgado Airport Portugal
 Logs: LIS Lissabon TP1689 Aigle Azur 20:35 PM A319 landed
2019/05/22 14:22 TAP593E TAP593E - F-HBAL a/c registered in France TAP Air Portugal A319
 Notam LPMA A1836/19 International 05/22/2019 0902 05/22/2019 1700 GRASS CUTTING ALONG RWY 05/23 STRIPS. MEN AND EQUIPMENT UNDER TOWER CONTROL AND AERODROME AUTHORITY SUPERVISION.
 Metar 22/05/2019 20:30 METAR LPMA 222030Z 02007KT 350V050 9999 FEW016 20/12 Q1021=
 Hits: 46 ID: 2307

Debriefing: Photographed movements of Airports in NW-Europe.
The images of our site attendant is in authorisation from Queen of Sky.
Copying of images of this site have been prohibited in which manner without the authorisation of the photographer.
In behalf of the crew :"Thank you visiting us" - Contact
Factsheets Airbus, 319-111, Aigle Azur, made by De Plane! © 2006 - 2022 All rights reserved


.